Time,TemperatureF,DewpointF,PressureIn,WindDirection,WindDirectionDegrees,WindSpeedMPH,WindSpeedGustMPH,Humidity,HourlyPrecipIn,Conditions,Clouds,dailyrainin,SoftwareType,DateUTC
2013-06-07 00:03:00,53.8,52.4,29.95,NE,46,2.0,6.0,95,0.00,RA,RA,0.00,WeatherDisplay:10.37,2013-06-07 05:03:00,
2013-06-07 00:13:00,53.7,52.3,29.95,North,2,5.0,9.0,95,0.00,OVC,OVC,0.00,WeatherDisplay:10.37,2013-06-07 05:13:00,
2013-06-07 00:23:00,53.6,52.2,29.95,North,357,0.0,1.0,95,0.00,OVC,OVC,0.00,WeatherDisplay:10.37,2013-06-07 05:23:00,
2013-06-07 00:33:00,53.4,52.3,29.95,NE,56,1.0,3.0,96,0.00,OVC,OVC,0.00,WeatherDisplay:10.37,2013-06-07 05:33:00,
2013-06-07 00:43:00,53.6,52.5,29.95,North,2,2.0,8.0,96,0.00,OVC,OVC,0.00,WeatherDisplay:10.37,2013-06-07 05:43:00,
2013-06-07 00:53:00,53.6,52.5,29.95,North,351,1.0,8.0,96,0.00,OVC,OVC,0.00,WeatherDisplay:10.37,2013-06-07 05:53:00,
2013-06-07 01:03:00,53.6,52.5,29.95,North,359,2.0,7.0,96,0.00,OVC,OVC,0.00,WeatherDisplay:10.37,2013-06-07 06:03:00,
2013-06-07 01:13:00,53.4,52.3,29.95,North,1,0.0,3.0,96,0.00,OVC,OVC,0.00,WeatherDisplay:10.37,2013-06-07 06:13:00,
2013-06-07 01:23:00,53.4,52.0,29.94,NNE,14,3.0,6.0,95,0.00,OVC,OVC,0.00,WeatherDisplay:10.37,2013-06-07 06:23:00,
2013-06-07 01:33:00,53.2,51.8,29.94,North,354,1.0,7.0,95,0.00,OVC,OVC,0.00,WeatherDisplay:10.37,2013-06-07 06:33:00,
2013-06-07 01:43:00,53.4,51.7,29.95,NW,319,1.0,7.0,94,0.00,OVC,OVC,0.00,WeatherDisplay:10.37,2013-06-07 06:43:00,
2013-06-07 01:53:00,53.4,51.7,29.94,NNE,29,0.0,3.0,94,0.00,OVC,OVC,0.00,WeatherDisplay:10.37,2013-06-07 06:53:00,
2013-06-07 02:03:00,53.4,51.7,29.94,NE,45,0.0,6.0,94,0.00,OVC,OVC,0.00,WeatherDisplay:10.37,2013-06-07 07:03:00,
2013-06-07 02:13:00,53.4,51.7,29.94,NNW,339,2.0,6.0,94,0.00,OVC,OVC,0.00,WeatherDisplay:10.37,2013-06-07 07:13:00,
2013-06-07 02:23:00,53.4,51.7,29.94,NNW,329,1.0,5.0,94,0.00,OVC,OVC,0.00,WeatherDisplay:10.37,2013-06-07 07:23:00,
2013-06-07 02:33:00,53.4,52.0,29.94,NW,311,1.0,3.0,95,0.00,OVC,OVC,0.00,WeatherDisplay:10.37,2013-06-07 07:33:00,
2013-06-07 02:43:00,53.4,52.0,29.94,NW,312,0.0,3.0,95,0.00,OVC,OVC,0.00,WeatherDisplay:10.37,2013-06-07 07:43:00,
2013-06-07 02:53:00,53.2,51.8,29.94,NW,326,0.0,5.0,95,0.00,OVC,OVC,0.00,WeatherDisplay:10.37,2013-06-07 07:53:00,
2013-06-07 03:03:00,53.2,51.8,29.93,NNW,327,0.0,1.0,95,0.00,OVC,OVC,0.00,WeatherDisplay:10.37,2013-06-07 08:03:00,
2013-06-07 03:13:00,53.2,51.8,29.93,NW,321,0.0,3.0,95,0.00,OVC,OVC,0.00,WeatherDisplay:10.37,2013-06-07 08:13:00,
2013-06-07 03:23:00,53.2,51.8,29.93,NNW,330,0.0,5.0,95,0.00,OVC,OVC,0.00,WeatherDisplay:10.37,2013-06-07 08:23:00,
2013-06-07 03:33:00,53.1,52.0,29.94,WNW,283,0.0,2.0,96,0.00,OVC,OVC,0.00,WeatherDisplay:10.37,2013-06-07 08:33:00,
2013-06-07 03:43:00,53.1,52.0,29.94,NNW,330,0.0,6.0,96,0.00,OVC,OVC,0.00,WeatherDisplay:10.37,2013-06-07 08:43:00,
2013-06-07 03:53:00,53.2,52.1,29.94,NNW,348,2.0,6.0,96,0.00,OVC,OVC,0.00,WeatherDisplay:10.37,2013-06-07 08:53:00,
2013-06-07 04:03:00,53.2,51.8,29.94,North,358,1.0,6.0,95,0.00,OVC,OVC,0.00,WeatherDisplay:10.37,2013-06-07 09:03:00,
2013-06-07 04:13:00,53.2,51.8,29.94,North,2,2.0,6.0,95,0.00,OVC,OVC,0.00,WeatherDisplay:10.37,2013-06-07 09:13:00,
2013-06-07 04:23:00,53.2,51.8,29.94,NNE,22,1.0,8.0,95,0.00,OVC,OVC,0.00,WeatherDisplay:10.37,2013-06-07 09:23:00,
2013-06-07 04:33:00,53.2,51.8,29.94,NNW,342,0.0,5.0,95,0.00,OVC,OVC,0.00,WeatherDisplay:10.37,2013-06-07 09:33:00,
2013-06-07 04:43:00,53.1,51.7,29.94,NNW,336,0.0,5.0,95,0.00,OVC,OVC,0.00,WeatherDisplay:10.37,2013-06-07 09:43:00,
2013-06-07 04:53:00,52.9,51.8,29.94,NW,321,1.0,7.0,96,0.00,OVC,OVC,0.00,WeatherDisplay:10.37,2013-06-07 09:53:00,
2013-06-07 05:03:00,52.9,51.8,29.93,North,0,1.0,6.0,96,0.00,OVC,OVC,0.00,WeatherDisplay:10.37,2013-06-07 10:03:00,
2013-06-07 05:13:00,52.8,51.4,29.94,North,355,2.0,7.0,95,0.00,OVC,OVC,0.00,WeatherDisplay:10.37,2013-06-07 10:13:00,
2013-06-07 05:23:00,52.7,51.3,29.94,North,354,1.0,6.0,95,0.00,OVC,OVC,0.00,WeatherDisplay:10.37,2013-06-07 10:23:00,
2013-06-07 05:33:00,52.7,51.6,29.94,NNW,328,0.0,3.0,96,0.00,OVC,OVC,0.00,WeatherDisplay:10.37,2013-06-07 10:33:00,
2013-06-07 05:43:00,52.7,51.6,29.95,NW,323,2.0,3.0,96,0.00,OVC,OVC,0.00,WeatherDisplay:10.37,2013-06-07 10:43:00,
2013-06-07 05:53:00,52.7,51.6,29.95,NNW,328,1.0,3.0,96,0.00,OVC,OVC,0.00,WeatherDisplay:10.37,2013-06-07 10:53:00,
2013-06-07 06:03:00,52.7,51.3,29.95,NNW,327,1.0,6.0,95,0.00,OVC,OVC,0.00,WeatherDisplay:10.37,2013-06-07 11:03:00,
2013-06-07 06:13:00,52.9,51.5,29.95,NNW,341,0.0,5.0,95,0.00,OVC,OVC,0.00,WeatherDisplay:10.37,2013-06-07 11:13:00,
2013-06-07 06:23:00,53.1,51.4,29.95,NNW,339,1.0,7.0,94,0.00,OVC,OVC,0.00,WeatherDisplay:10.37,2013-06-07 11:23:00,
2013-06-07 06:33:00,53.2,51.3,29.95,NNE,20,0.0,5.0,93,0.00,OVC,OVC,0.00,WeatherDisplay:10.37,2013-06-07 11:33:00,
2013-06-07 06:43:00,53.4,50.9,29.95,NNW,348,1.0,6.0,91,0.00,OVC,OVC,0.00,WeatherDisplay:10.37,2013-06-07 11:43:00,
2013-06-07 06:53:00,53.6,50.7,29.96,NNW,343,1.0,7.0,90,0.00,OVC,OVC,0.00,WeatherDisplay:10.37,2013-06-07 11:53:00,
2013-06-07 07:03:00,53.6,50.7,29.96,North,351,3.0,9.0,90,0.00,OVC,OVC,0.00,WeatherDisplay:10.37,2013-06-07 12:03:00,
2013-06-07 07:13:00,53.7,50.8,29.96,NNW,339,0.0,7.0,90,0.00,OVC,OVC,0.00,WeatherDisplay:10.37,2013-06-07 12:13:00,
2013-06-07 07:23:00,53.8,50.9,29.96,NW,315,0.0,2.0,90,0.00,OVC,OVC,0.00,WeatherDisplay:10.37,2013-06-07 12:23:00,
2013-06-07 07:33:00,53.8,50.6,29.96,NW,316,2.0,7.0,89,0.00,OVC,OVC,0.00,WeatherDisplay:10.37,2013-06-07 12:33:00,
2013-06-07 07:43:00,53.7,50.5,29.96,NNE,20,5.0,10.0,89,0.00,OVC,OVC,0.00,WeatherDisplay:10.37,2013-06-07 12:43:00,
2013-06-07 07:53:00,53.8,50.3,29.96,North,355,5.0,10.0,88,0.00,OVC,OVC,0.00,WeatherDisplay:10.37,2013-06-07 12:53:00,
2013-06-07 08:03:00,54.3,50.5,29.97,NNE,16,2.0,9.0,87,0.00,OVC,OVC,0.00,WeatherDisplay:10.37,2013-06-07 13:03:00,
2013-06-07 08:13:00,54.5,50.4,29.97,North,359,2.0,12.0,86,0.00,OVC,OVC,0.00,WeatherDisplay:10.37,2013-06-07 13:13:00,
2013-06-07 08:23:00,54.5,49.8,29.98,NNE,16,6.0,13.0,84,0.00,OVC,OVC,0.00,WeatherDisplay:10.37,2013-06-07 13:23:00,
2013-06-07 08:33:00,54.7,50.3,29.98,NNE,23,2.0,10.0,85,0.00,OVC,OVC,0.00,WeatherDisplay:10.37,2013-06-07 13:33:00,
2013-06-07 08:43:00,55.6,50.5,29.98,NNW,347,5.0,9.0,83,0.00,OVC,OVC,0.00,WeatherDisplay:10.37,2013-06-07 13:43:00,
2013-06-07 08:53:00,56.0,50.6,29.98,North,358,5.0,13.0,82,0.00,OVC,OVC,0.00,WeatherDisplay:10.37,2013-06-07 13:53:00,
2013-06-07 09:03:00,56.5,50.7,29.98,NNW,338,6.0,12.0,81,0.00,OVC,OVC,0.00,WeatherDisplay:10.37,2013-06-07 14:03:00,
2013-06-07 09:13:00,57.0,50.9,29.99,North,350,6.0,9.0,80,0.00,OVC,OVC,0.00,WeatherDisplay:10.37,2013-06-07 14:13:00,
2013-06-07 09:23:00,56.7,51.2,29.99,NE,49,2.0,7.0,82,0.00,OVC,OVC,0.00,WeatherDisplay:10.37,2013-06-07 14:23:00,
2013-06-07 09:33:00,56.1,50.7,29.99,NE,43,1.0,10.0,82,0.00,OVC,OVC,0.00,WeatherDisplay:10.37,2013-06-07 14:33:00,
2013-06-07 09:43:00,56.1,50.7,29.99,NE,44,5.0,8.0,82,0.00,OVC,OVC,0.00,WeatherDisplay:10.37,2013-06-07 14:43:00,
2013-06-07 09:53:00,57.9,51.8,29.99,NNE,12,1.0,6.0,80,0.00,OVC,OVC,0.00,WeatherDisplay:10.37,2013-06-07 14:53:00,
2013-06-07 10:03:00,58.8,51.9,29.99,NW,323,1.0,8.0,78,0.00,OVC,OVC,0.00,WeatherDisplay:10.37,2013-06-07 15:03:00,
2013-06-07 10:13:00,58.6,52.1,29.99,NNE,18,1.0,6.0,79,0.00,OVC,OVC,0.00,WeatherDisplay:10.37,2013-06-07 15:13:00,
2013-06-07 10:23:00,58.8,52.0,29.99,North,350,7.0,10.0,78,0.00,OVC,OVC,0.00,WeatherDisplay:10.37,2013-06-07 15:23:00,
2013-06-07 10:33:00,59.4,52.6,29.99,North,356,3.0,10.0,78,0.00,OVC,OVC,0.00,WeatherDisplay:10.37,2013-06-07 15:33:00,
2013-06-07 10:43:00,59.2,53.0,29.99,North,10,0.0,9.0,80,0.00,OVC,OVC,0.00,WeatherDisplay:10.37,2013-06-07 15:43:00,
2013-06-07 10:53:00,59.7,53.2,29.99,North,349,2.0,8.0,79,0.00,OVC,OVC,0.00,WeatherDisplay:10.37,2013-06-07 15:53:00,
2013-06-07 11:03:00,61.0,53.7,29.98,NNW,329,2.0,7.0,77,0.00,BKN,BKN,0.00,WeatherDisplay:10.37,2013-06-07 16:03:00,
2013-06-07 11:13:00,61.8,53.8,29.98,NNW,333,3.0,9.0,75,0.00,BKN,BKN,0.00,WeatherDisplay:10.37,2013-06-07 16:13:00,
2013-06-07 11:23:00,62.2,53.4,29.98,NNW,337,3.0,8.0,73,0.00,BKN,BKN,0.00,WeatherDisplay:10.37,2013-06-07 16:23:00,
2013-06-07 11:33:00,63.9,54.3,29.98,NNE,17,2.0,8.0,71,0.00,BKN,BKN,0.00,WeatherDisplay:10.37,2013-06-07 16:33:00,
2013-06-07 11:43:00,66.9,55.2,29.98,North,7,2.0,9.0,66,0.00,BKN,BKN,0.00,WeatherDisplay:10.37,2013-06-07 16:43:00,
2013-06-07 11:53:00,65.4,52.5,29.98,ENE,73,3.0,10.0,63,0.00,BKN,BKN,0.00,WeatherDisplay:10.37,2013-06-07 16:53:00,
2013-06-07 12:03:00,67.2,54.1,29.97,East,80,0.0,6.0,63,0.00,BKN,BKN,0.00,WeatherDisplay:10.37,2013-06-07 17:03:00,
2013-06-07 12:13:00,67.1,51.8,29.97,East,83,3.0,13.0,58,0.00,BKN,BKN,0.00,WeatherDisplay:10.37,2013-06-07 17:13:00,
2013-06-07 12:23:00,67.9,52.5,29.96,NNE,20,2.0,9.0,58,0.00,BKN,BKN,0.00,WeatherDisplay:10.37,2013-06-07 17:23:00,
2013-06-07 12:33:00,67.5,50.7,29.96,NE,54,6.0,13.0,55,0.00,BKN,BKN,0.00,WeatherDisplay:10.37,2013-06-07 17:33:00,
2013-06-07 12:43:00,68.0,51.7,29.96,North,10,6.0,13.0,56,0.00,BKN,BKN,0.00,WeatherDisplay:10.37,2013-06-07 17:43:00,
2013-06-07 12:53:00,68.2,54.2,29.96,ENE,58,7.0,14.0,61,0.00,BKN,BKN,0.00,WeatherDisplay:10.37,2013-06-07 17:53:00,
2013-06-07 13:03:00,69.2,54.3,29.95,NE,42,2.0,8.0,59,0.00,SCT,SCT,0.00,WeatherDisplay:10.37,2013-06-07 18:03:00,
2013-06-07 13:13:00,68.6,55.0,29.95,NNE,30,5.0,12.0,62,0.00,SCT,SCT,0.00,WeatherDisplay:10.37,2013-06-07 18:13:00,
2013-06-07 13:23:00,70.0,53.6,29.95,East,88,3.0,13.0,56,0.00,SCT,SCT,0.00,WeatherDisplay:10.37,2013-06-07 18:23:00,
2013-06-07 13:33:00,69.9,54.9,29.94,NNE,15,1.0,10.0,59,0.00,SCT,SCT,0.00,WeatherDisplay:10.37,2013-06-07 18:33:00,
2013-06-07 13:43:00,69.9,52.5,29.94,NE,40,8.0,13.0,54,0.00,SCT,SCT,0.00,WeatherDisplay:10.37,2013-06-07 18:43:00,
2013-06-07 13:53:00,70.6,52.6,29.94,NNE,32,6.0,14.0,53,0.00,SCT,SCT,0.00,WeatherDisplay:10.37,2013-06-07 18:53:00,
2013-06-07 14:03:00,70.0,52.1,29.94,ENE,70,6.0,12.0,53,0.00,SCT,SCT,0.00,WeatherDisplay:10.37,2013-06-07 19:03:00,
2013-06-07 14:23:00,70.3,51.8,29.94,ENE,68,1.0,13.0,52,0.00,SCT,SCT,0.00,WeatherDisplay:10.37,2013-06-07 19:23:00,
2013-06-07 14:33:00,69.0,51.6,29.94,East,80,3.0,13.0,54,0.00,SCT,SCT,0.00,WeatherDisplay:10.37,2013-06-07 19:33:00,
2013-06-07 14:43:00,70.4,51.4,29.94,ESE,118,5.0,13.0,51,0.00,SCT,SCT,0.00,WeatherDisplay:10.37,2013-06-07 19:43:00,
2013-06-07 14:53:00,69.4,53.1,29.93,NNE,16,1.0,5.0,56,0.00,SCT,SCT,0.00,WeatherDisplay:10.37,2013-06-07 19:53:00,
2013-06-07 15:03:00,71.2,51.1,29.93,NNE,27,5.0,9.0,49,0.00,SCT,SCT,0.00,WeatherDisplay:10.37,2013-06-07 20:03:00,
2013-06-07 15:13:00,71.5,51.4,29.93,NE,53,1.0,7.0,49,0.00,SCT,SCT,0.00,WeatherDisplay:10.37,2013-06-07 20:13:00,
2013-06-07 15:33:00,71.2,49.9,29.93,NNE,17,6.0,9.0,47,0.00,SCT,SCT,0.00,WeatherDisplay:10.37,2013-06-07 20:33:00,
2013-06-07 15:43:00,69.4,49.4,29.92,ESE,120,6.0,10.0,49,0.00,SCT,SCT,0.00,WeatherDisplay:10.37,2013-06-07 20:43:00,
2013-06-07 15:53:00,69.6,50.7,29.92,ENE,65,1.0,8.0,51,0.00,SCT,SCT,0.00,WeatherDisplay:10.37,2013-06-07 20:53:00,
2013-06-07 16:03:00,70.5,52.0,29.92,North,352,0.0,1.0,52,0.00,BKN,BKN,0.00,WeatherDisplay:10.37,2013-06-07 21:03:00,
2013-06-07 16:13:00,70.0,49.9,29.92,ESE,117,0.0,6.0,49,0.00,BKN,BKN,0.00,WeatherDisplay:10.37,2013-06-07 21:13:00,
2013-06-07 16:23:00,70.2,50.1,29.92,North,355,2.0,6.0,49,0.00,BKN,BKN,0.00,WeatherDisplay:10.37,2013-06-07 21:23:00,
2013-06-07 16:43:00,71.6,49.7,29.92,North,359,1.0,7.0,46,0.00,BKN,BKN,0.00,WeatherDisplay:10.37,2013-06-07 21:43:00,
2013-06-07 16:53:00,71.5,49.0,29.92,ENE,66,3.0,7.0,45,0.00,BKN,BKN,0.00,WeatherDisplay:10.37,2013-06-07 21:53:00,
2013-06-07 17:03:00,71.0,49.2,29.91,East,79,1.0,3.0,46,0.00,BKN,BKN,0.00,WeatherDisplay:10.37,2013-06-07 22:03:00,
2013-06-07 17:23:00,69.6,48.5,29.91,NE,45,2.0,5.0,47,0.00,BKN,BKN,0.00,WeatherDisplay:10.37,2013-06-07 22:23:00,
2013-06-07 17:33:00,69.3,50.4,29.91,East,90,0.0,2.0,51,0.00,BKN,BKN,0.00,WeatherDisplay:10.37,2013-06-07 22:33:00,
2013-06-07 17:43:00,68.9,48.9,29.91,NNE,14,2.0,6.0,49,0.00,BKN,BKN,0.00,WeatherDisplay:10.37,2013-06-07 22:43:00,
2013-06-07 17:53:00,68.7,49.3,29.91,North,8,2.0,3.0,50,0.00,BKN,BKN,0.00,WeatherDisplay:10.37,2013-06-07 22:53:00,
2013-06-07 18:03:00,68.4,49.5,29.91,NE,50,1.0,3.0,51,0.00,SCT,SCT,0.00,WeatherDisplay:10.37,2013-06-07 23:03:00,
2013-06-07 18:13:00,69.6,50.7,29.91,NE,54,0.0,2.0,51,0.00,SCT,SCT,0.00,WeatherDisplay:10.37,2013-06-07 23:13:00,
2013-06-07 18:23:00,70.6,49.4,29.91,ENE,67,2.0,5.0,47,0.00,SCT,SCT,0.00,WeatherDisplay:10.37,2013-06-07 23:23:00,
2013-06-07 18:33:00,72.0,50.0,29.91,SSE,154,0.0,2.0,46,0.00,SCT,SCT,0.00,WeatherDisplay:10.37,2013-06-07 23:33:00,
2013-06-07 18:43:00,70.7,47.7,29.90,NE,52,1.0,5.0,44,0.00,SCT,SCT,0.00,WeatherDisplay:10.37,2013-06-07 23:43:00,
2013-06-07 18:53:00,69.8,46.9,29.90,NE,40,0.0,6.0,44,0.00,SCT,SCT,0.00,WeatherDisplay:10.37,2013-06-07 23:53:00,
2013-06-07 19:03:00,69.6,46.1,29.90,NE,45,3.0,5.0,43,0.00,FEW,FEW,0.00,WeatherDisplay:10.37,2013-06-08 00:03:00,
2013-06-07 19:13:00,69.3,47.0,29.91,ESE,109,1.0,5.0,45,0.00,FEW,FEW,0.00,WeatherDisplay:10.37,2013-06-08 00:13:00,
2013-06-07 19:23:00,68.9,46.1,29.91,ENE,71,1.0,5.0,44,0.00,FEW,FEW,0.00,WeatherDisplay:10.37,2013-06-08 00:23:00,
2013-06-07 19:43:00,67.8,48.0,29.91,ENE,65,1.0,3.0,49,0.00,FEW,FEW,0.00,WeatherDisplay:10.37,2013-06-08 00:43:00,
2013-06-07 19:53:00,67.0,48.8,29.91,East,90,0.0,1.0,52,0.00,FEW,FEW,0.00,WeatherDisplay:10.37,2013-06-08 00:53:00,
2013-06-07 20:13:00,64.8,48.7,29.91,ESE,106,1.0,2.0,56,0.00,FEW,FEW,0.00,WeatherDisplay:10.37,2013-06-08 01:13:00,
2013-06-07 20:23:00,63.9,48.3,29.91,ESE,106,1.0,3.0,57,0.00,FEW,FEW,0.00,WeatherDisplay:10.37,2013-06-08 01:23:00,
2013-06-07 20:43:00,62.4,48.8,29.91,East,98,1.0,3.0,61,0.00,FEW,FEW,0.00,WeatherDisplay:10.37,2013-06-08 01:43:00,
2013-06-07 20:53:00,61.7,48.5,29.92,East,98,1.0,2.0,62,0.00,FEW,FEW,0.00,WeatherDisplay:10.37,2013-06-08 01:53:00,
2013-06-07 21:03:00,61.2,48.9,29.92,ESE,107,1.0,3.0,64,0.00,FEW,FEW,0.00,WeatherDisplay:10.37,2013-06-08 02:03:00,
2013-06-07 21:13:00,60.5,48.3,29.92,East,93,0.0,2.0,64,0.00,FEW,FEW,0.00,WeatherDisplay:10.37,2013-06-08 02:13:00,
2013-06-07 21:23:00,60.4,48.6,29.92,East,90,0.0,1.0,65,0.00,FEW,FEW,0.00,WeatherDisplay:10.37,2013-06-08 02:23:00,
2013-06-07 21:33:00,59.5,48.6,29.91,East,96,1.0,3.0,67,0.00,FEW,FEW,0.00,WeatherDisplay:10.37,2013-06-08 02:33:00,
2013-06-07 21:43:00,59.2,49.0,29.92,ENE,78,0.0,2.0,69,0.00,FEW,FEW,0.00,WeatherDisplay:10.37,2013-06-08 02:43:00,
2013-06-07 21:53:00,58.5,48.7,29.92,East,89,1.0,2.0,70,0.00,FEW,FEW,0.00,WeatherDisplay:10.37,2013-06-08 02:53:00,
2013-06-07 22:03:00,58.3,49.3,29.93,ESE,118,1.0,2.0,72,0.00,BKN,BKN,0.00,WeatherDisplay:10.37,2013-06-08 03:03:00,
2013-06-07 22:13:00,58.3,49.7,29.92,SE,135,0.0,2.0,73,0.00,BKN,BKN,0.00,WeatherDisplay:10.37,2013-06-08 03:13:00,
2013-06-07 22:33:00,57.9,50.0,29.92,SE,135,1.0,3.0,75,0.00,BKN,BKN,0.00,WeatherDisplay:10.37,2013-06-08 03:33:00,
2013-06-07 22:43:00,57.6,49.8,29.92,SE,135,0.0,2.0,75,0.00,BKN,BKN,0.00,WeatherDisplay:10.37,2013-06-08 03:43:00,
2013-06-07 23:03:00,56.7,49.9,29.93,SE,135,1.0,2.0,78,0.00,FEW,FEW,0.00,WeatherDisplay:10.37,2013-06-08 04:03:00,
2013-06-07 23:13:00,56.9,50.5,29.93,SE,131,1.0,5.0,79,0.00,FEW,FEW,0.00,WeatherDisplay:10.37,2013-06-08 04:13:00,
2013-06-07 23:23:00,56.8,50.4,29.92,SE,135,1.0,2.0,79,0.00,FEW,FEW,0.00,WeatherDisplay:10.37,2013-06-08 04:23:00,
2013-06-07 23:33:00,56.5,50.7,29.92,SE,132,1.0,3.0,81,0.00,FEW,FEW,0.00,WeatherDisplay:10.37,2013-06-08 04:33:00,
2013-06-07 23:43:00,56.7,50.6,29.92,SE,128,0.0,3.0,80,0.00,FEW,FEW,0.00,WeatherDisplay:10.37,2013-06-08 04:43:00,
2013-06-07 23:53:00,55.7,49.6,29.92,SE,135,0.0,1.0,80,0.00,FEW,FEW,0.00,WeatherDisplay:10.37,2013-06-08 04:53:00,